createdAt,value
2017-11-08T00:00:20.521Z,14.25
2017-11-08T00:02:49.362Z,15.50
2017-11-08T00:05:17.426Z,15.60
2017-11-08T00:07:45.510Z,15.05
2017-11-08T00:10:13.573Z,15.73
2017-11-08T00:12:41.627Z,15.85
2017-11-08T00:15:09.694Z,14.45
2017-11-08T00:17:38.569Z,15.38
2017-11-08T00:20:07.410Z,14.80
2017-11-08T00:22:35.866Z,15.55
2017-11-08T00:25:03.927Z,16.98
2017-11-08T00:27:32.008Z,16.77
2017-11-08T00:30:00.078Z,15.48
2017-11-08T00:32:28.137Z,15.82
2017-11-08T00:34:56.215Z,15.93
2017-11-08T00:37:24.294Z,15.93
2017-11-08T00:39:52.373Z,14.95
2017-11-08T00:42:21.218Z,15.82
2017-11-08T00:44:49.256Z,14.75
2017-11-08T00:47:21.102Z,14.50
2017-11-08T00:49:49.173Z,14.55
2017-11-08T00:52:17.245Z,15.60
2017-11-08T00:54:45.698Z,14.25
2017-11-08T00:57:16.549Z,13.77
2017-11-08T00:59:44.609Z,17.27
2017-11-08T01:02:13.062Z,14.00
2017-11-08T01:04:41.898Z,15.40
2017-11-08T01:07:09.966Z,13.77
2017-11-08T01:09:38.031Z,13.02
2017-11-08T01:12:06.106Z,14.27
2017-11-08T01:14:34.186Z,14.90
2017-11-08T01:17:02.241Z,14.80
2017-11-08T01:19:30.323Z,14.98
2017-11-08T01:21:59.518Z,17.25
2017-11-08T01:24:27.594Z,16.50
2017-11-08T01:26:55.676Z,15.02
2017-11-08T01:29:23.734Z,16.02
2017-11-08T01:31:51.794Z,13.68
2017-11-08T01:34:19.874Z,12.57
2017-11-08T01:39:48.322Z,13.13
2017-11-08T01:42:16.438Z,14.68
2017-11-08T01:44:48.432Z,13.07
2017-11-08T01:47:16.491Z,14.57
2017-11-08T01:49:46.942Z,13.30
2017-11-08T01:52:16.970Z,13.98
2017-11-08T01:54:45.027Z,14.35
2017-11-08T01:57:13.087Z,14.35
2017-11-08T01:59:41.164Z,14.27
2017-11-08T02:02:09.226Z,15.60
2017-11-08T02:04:37.287Z,15.45
2017-11-08T02:07:05.368Z,13.77
2017-11-08T02:09:33.438Z,14.43
2017-11-08T02:12:02.274Z,14.43
2017-11-08T02:14:30.337Z,14.63
2017-11-08T02:16:58.410Z,13.80
2017-11-08T02:19:26.470Z,14.00
2017-11-08T02:21:54.549Z,14.20
2017-11-08T02:24:22.601Z,15.75
2017-11-08T02:26:52.897Z,13.95
2017-11-08T02:29:20.953Z,14.18
2017-11-08T02:31:49.090Z,13.88
2017-11-08T02:34:17.172Z,13.55
2017-11-08T02:36:45.222Z,14.65
2017-11-08T02:39:14.041Z,13.50
2017-11-08T02:41:42.877Z,13.98
2017-11-08T02:44:10.937Z,13.48
2017-11-08T02:46:39.403Z,14.38
2017-11-08T02:49:07.462Z,13.25
2017-11-08T02:51:36.309Z,13.98
2017-11-08T02:54:08.433Z,13.50
2017-11-08T02:56:36.505Z,13.55
2017-11-08T02:59:04.571Z,14.15
2017-11-08T03:01:33.985Z,14.73
2017-11-08T03:04:02.380Z,13.65
2017-11-08T03:06:30.437Z,13.45
2017-11-08T03:08:59.274Z,15.80
2017-11-08T03:11:27.349Z,13.70
2017-11-08T03:13:55.410Z,14.73
2017-11-08T03:16:23.470Z,15.45
2017-11-08T03:18:51.542Z,14.45
2017-11-08T03:21:19.602Z,14.80
2017-11-08T03:23:48.352Z,15.05
2017-11-08T03:26:17.169Z,13.35
2017-11-08T03:28:45.237Z,16.20
2017-11-08T03:31:13.309Z,15.25
2017-11-08T03:33:41.357Z,15.65
2017-11-08T03:36:10.194Z,16.10
2017-11-08T03:38:39.017Z,15.68
2017-11-08T03:41:07.105Z,14.80
2017-11-08T03:43:36.302Z,15.52
2017-11-08T03:46:05.130Z,16.42
2017-11-08T03:48:33.202Z,15.93
2017-11-08T03:51:01.261Z,16.17
2017-11-08T03:53:29.330Z,16.58
2017-11-08T03:55:57.385Z,17.08
2017-11-08T03:58:26.217Z,15.85
2017-11-08T04:00:54.277Z,16.25
2017-11-08T04:03:22.345Z,15.90
2017-11-08T04:05:50.417Z,16.70
2017-11-08T04:08:18.481Z,17.00
2017-11-08T04:10:46.536Z,15.45
2017-11-08T04:13:14.629Z,17.52
2017-11-08T04:15:42.705Z,16.50
2017-11-08T04:18:10.762Z,17.48
2017-11-08T04:20:38.830Z,16.95
2017-11-08T04:23:06.888Z,16.95
2017-11-08T04:25:35.338Z,16.27
2017-11-08T04:28:03.410Z,15.77
2017-11-08T04:30:31.465Z,18.17
2017-11-08T04:32:59.544Z,15.63
2017-11-08T04:35:27.590Z,16.83
2017-11-08T04:37:55.657Z,17.48
2017-11-08T04:40:23.741Z,16.67
2017-11-08T04:42:51.797Z,16.65
2017-11-08T04:45:19.869Z,17.75
2017-11-08T04:47:47.937Z,18.27
2017-11-08T04:50:16.766Z,16.23
2017-11-08T04:52:44.833Z,18.02
2017-11-08T04:55:12.891Z,16.75
2017-11-08T04:57:40.961Z,16.52
2017-11-08T05:00:09.025Z,18.42
2017-11-08T05:02:37.082Z,17.27
2017-11-08T05:05:05.153Z,17.77
2017-11-08T05:07:33.262Z,17.15
2017-11-08T05:10:01.350Z,17.90
2017-11-08T05:12:30.247Z,17.85
2017-11-08T05:14:58.322Z,19.55
2017-11-08T05:17:26.373Z,17.65
2017-11-08T05:19:55.196Z,16.77
2017-11-08T05:22:24.046Z,17.37
2017-11-08T05:24:53.239Z,18.40
2017-11-08T05:27:21.309Z,18.55
2017-11-08T05:29:49.366Z,18.60
2017-11-08T05:32:17.434Z,19.05
2017-11-08T05:34:45.486Z,19.92
2017-11-08T05:37:13.572Z,19.00
2017-11-08T05:39:41.633Z,17.35
2017-11-08T05:42:11.037Z,19.35
2017-11-08T05:44:39.782Z,18.08
2017-11-08T05:47:07.858Z,18.83
2017-11-08T05:49:35.929Z,18.85
2017-11-08T05:52:03.977Z,18.92
2017-11-08T05:54:32.818Z,18.20
2017-11-08T05:57:02.382Z,20.50
2017-11-08T05:59:31.589Z,19.60
2017-11-08T06:01:59.642Z,19.60
2017-11-08T06:04:28.111Z,19.33
2017-11-08T06:06:56.177Z,18.10
2017-11-08T06:09:24.239Z,18.23
2017-11-08T06:11:52.316Z,18.08
2017-11-08T06:14:20.378Z,18.83
2017-11-08T06:16:49.785Z,17.35
2017-11-08T06:19:19.108Z,18.17
2017-11-08T06:21:47.088Z,19.80
2017-11-08T06:24:15.161Z,19.83
2017-11-08T06:26:43.213Z,18.65
2017-11-08T06:29:11.289Z,18.92
2017-11-08T06:31:39.383Z,16.45
2017-11-08T06:34:07.437Z,17.95
2017-11-08T06:36:36.633Z,18.85
2017-11-08T06:39:04.709Z,17.85
2017-11-08T06:41:33.922Z,16.73
2017-11-08T06:44:01.986Z,18.73
2017-11-08T06:46:30.037Z,19.30
2017-11-08T06:48:58.117Z,17.65
2017-11-08T06:51:26.958Z,18.17
2017-11-08T06:53:55.013Z,20.48
2017-11-08T06:56:23.077Z,18.58
2017-11-08T06:58:51.146Z,19.15
2017-11-08T07:01:19.202Z,18.50
2017-11-08T07:03:47.674Z,18.23
2017-11-08T07:06:15.729Z,19.98
2017-11-08T07:08:43.785Z,19.30
2017-11-08T07:11:12.625Z,20.37
2017-11-08T07:13:40.681Z,18.20
2017-11-08T07:16:08.743Z,20.50
2017-11-08T07:18:36.825Z,18.05
2017-11-08T07:21:04.881Z,19.48
2017-11-08T07:23:32.942Z,19.10
2017-11-08T07:26:01.013Z,20.10
2017-11-08T07:28:29.089Z,20.15
2017-11-08T07:30:57.149Z,18.45
2017-11-08T07:33:25.970Z,19.62
2017-11-08T07:35:54.049Z,18.45
2017-11-08T07:38:22.105Z,20.50
2017-11-08T07:40:50.174Z,18.25
2017-11-08T07:43:19.885Z,20.75
2017-11-08T07:45:47.869Z,18.85
2017-11-08T07:48:15.930Z,17.85
2017-11-08T07:50:44.002Z,20.80
2017-11-08T07:53:12.058Z,19.33
2017-11-08T07:55:45.361Z,18.95
2017-11-08T07:58:13.433Z,19.12
2017-11-08T08:00:41.502Z,19.67
2017-11-08T08:03:09.555Z,19.02
2017-11-08T08:05:38.013Z,20.25
2017-11-08T08:08:06.069Z,19.48
2017-11-08T08:10:34.901Z,19.02
2017-11-08T08:13:03.737Z,20.00
2017-11-08T08:15:31.797Z,18.17
2017-11-08T08:17:59.861Z,20.48
2017-11-08T08:20:27.945Z,19.52
2017-11-08T08:22:56.398Z,20.00
2017-11-08T08:25:24.454Z,17.92
2017-11-08T08:27:53.291Z,18.37
2017-11-08T08:30:23.741Z,20.20
2017-11-08T08:32:52.218Z,20.52
2017-11-08T08:35:20.666Z,18.50
2017-11-08T08:37:48.725Z,20.65
2017-11-08T08:40:16.799Z,21.20
2017-11-08T08:42:44.865Z,19.02
2017-11-08T08:45:13.318Z,19.92
2017-11-08T08:47:41.385Z,20.40
2017-11-08T08:50:09.462Z,20.35
2017-11-08T08:52:38.287Z,21.37
2017-11-08T08:55:06.355Z,23.90
2017-11-08T08:57:34.426Z,22.50
2017-11-08T09:00:02.503Z,20.85
2017-11-08T09:02:31.316Z,21.77
2017-11-08T09:04:59.492Z,22.10
2017-11-08T09:07:28.857Z,21.58
2017-11-08T09:09:57.602Z,20.80
2017-11-08T09:12:25.682Z,22.42
2017-11-08T09:14:54.135Z,22.05
2017-11-08T09:17:22.197Z,21.70
2017-11-08T09:19:51.789Z,19.98
2017-11-08T09:22:19.846Z,21.17
2017-11-08T09:24:52.265Z,22.20
2017-11-08T09:27:21.090Z,22.08
2017-11-08T09:29:55.909Z,23.08
2017-11-08T09:32:23.986Z,21.17
2017-11-08T09:34:52.037Z,22.75
2017-11-08T09:37:25.757Z,20.73
2017-11-08T09:39:53.832Z,21.45
2017-11-08T09:42:21.909Z,20.90
2017-11-08T09:44:50.376Z,20.98
2017-11-08T09:47:18.430Z,20.02
2017-11-08T09:49:46.504Z,23.67
2017-11-08T09:52:14.565Z,24.10
2017-11-08T09:54:42.625Z,23.77
2017-11-08T09:57:11.470Z,22.75
2017-11-08T09:59:43.737Z,22.52
2017-11-08T10:02:12.581Z,23.35
2017-11-08T10:04:40.638Z,25.67
2017-11-08T10:07:08.715Z,23.08
2017-11-08T10:09:36.880Z,23.50
2017-11-08T10:12:10.550Z,23.45
2017-11-08T10:14:39.473Z,21.92
2017-11-08T10:17:10.122Z,21.37
2017-11-08T10:19:38.179Z,25.40
2017-11-08T10:22:12.876Z,24.92
2017-11-08T10:24:42.234Z,25.02
2017-11-08T10:27:10.305Z,21.87
2017-11-08T10:29:38.361Z,25.62
2017-11-08T10:32:06.438Z,23.27
2017-11-08T10:34:34.515Z,24.75
2017-11-08T10:37:02.594Z,23.02
2017-11-08T10:39:30.655Z,22.40
2017-11-08T10:41:58.713Z,23.67
2017-11-08T10:44:26.751Z,22.80
2017-11-08T10:46:54.806Z,21.25
2017-11-08T10:49:28.983Z,21.48
2017-11-08T10:51:57.042Z,23.90
2017-11-08T10:54:25.102Z,26.83
2017-11-08T10:56:53.194Z,29.00
2017-11-08T10:59:21.271Z,26.62
2017-11-08T11:01:49.319Z,25.42
2017-11-08T11:04:18.163Z,22.33
2017-11-08T11:06:47.732Z,21.95
2017-11-08T11:09:15.800Z,24.67
2017-11-08T11:11:43.887Z,24.75
2017-11-08T11:14:11.948Z,24.35
2017-11-08T11:16:40.010Z,24.52
2017-11-08T11:19:12.896Z,24.20
2017-11-08T11:21:41.362Z,23.73
2017-11-08T11:24:12.261Z,23.92
2017-11-08T11:26:42.027Z,22.27
2017-11-08T11:29:10.105Z,23.42
2017-11-08T11:31:38.926Z,21.45
2017-11-08T11:34:07.776Z,23.30
2017-11-08T11:36:35.851Z,22.27
2017-11-08T11:39:03.914Z,22.95
2017-11-08T11:41:31.986Z,22.92
2017-11-08T11:44:00.055Z,23.38
2017-11-08T11:46:29.477Z,23.42
2017-11-08T11:49:00.778Z,22.87
2017-11-08T11:51:32.714Z,23.92
2017-11-08T11:54:00.775Z,23.90
2017-11-08T11:56:29.596Z,24.70
2017-11-08T11:58:58.438Z,23.90
2017-11-08T12:01:27.427Z,24.95
2017-11-08T12:03:55.502Z,25.35
2017-11-08T12:06:24.409Z,24.85
2017-11-08T12:08:52.465Z,24.73
2017-11-08T12:11:20.550Z,25.95
2017-11-08T12:13:50.392Z,30.50
2017-11-08T12:16:19.232Z,31.20
2017-11-08T12:18:47.684Z,29.65
2017-11-08T12:21:16.523Z,30.75
2017-11-08T12:23:45.358Z,31.73
2017-11-08T12:26:14.782Z,34.08
2017-11-08T12:28:44.653Z,36.28
2017-11-08T12:31:12.706Z,32.22
2017-11-08T12:33:40.776Z,31.00
2017-11-08T12:36:08.835Z,32.60
2017-11-08T12:38:37.818Z,34.10
2017-11-08T12:41:05.878Z,33.78
2017-11-08T12:43:33.934Z,34.97
2017-11-08T12:46:02.014Z,34.75
2017-11-08T12:48:30.467Z,32.53
2017-11-08T12:50:58.961Z,31.45
2017-11-08T12:53:27.782Z,33.40
2017-11-08T12:55:56.983Z,32.22
2017-11-08T12:58:25.067Z,33.28
2017-11-08T13:00:53.131Z,30.17
2017-11-08T13:03:21.187Z,29.67
2017-11-08T13:05:55.050Z,32.28
2017-11-08T13:08:23.120Z,31.52
2017-11-08T13:10:56.883Z,31.92
2017-11-08T13:13:24.943Z,30.55
2017-11-08T13:15:52.998Z,31.62
2017-11-08T13:18:21.839Z,30.15
2017-11-08T13:20:50.294Z,32.63
2017-11-08T13:23:18.366Z,32.95
2017-11-08T13:25:46.418Z,32.13
2017-11-08T13:28:14.498Z,32.17
2017-11-08T13:30:42.554Z,32.88
2017-11-08T13:33:12.118Z,30.35
2017-11-08T13:35:40.199Z,32.90
2017-11-08T13:38:08.651Z,30.50
2017-11-08T13:40:36.706Z,31.50
2017-11-08T13:43:04.778Z,32.55
2017-11-08T13:45:33.231Z,32.67
2017-11-08T13:48:02.458Z,32.55
2017-11-08T13:50:30.507Z,31.10
2017-11-08T13:52:59.331Z,33.95
2017-11-08T13:55:27.412Z,31.10
2017-11-08T13:57:55.463Z,33.10
2017-11-08T14:00:23.546Z,31.65
2017-11-08T14:02:51.594Z,31.10
2017-11-08T14:05:19.654Z,32.92
2017-11-08T14:07:48.496Z,30.65
2017-11-08T14:10:16.575Z,28.98
2017-11-08T14:12:44.644Z,30.90
2017-11-08T14:15:13.104Z,33.10
2017-11-08T14:17:41.175Z,29.55
2017-11-08T14:20:09.265Z,32.40
2017-11-08T14:22:37.290Z,31.70
2017-11-08T14:25:06.130Z,32.88
2017-11-08T14:27:35.537Z,30.65
2017-11-08T14:30:03.921Z,35.92
2017-11-08T14:32:32.002Z,33.10
2017-11-08T14:35:00.062Z,31.73
2017-11-08T14:37:28.121Z,30.67
2017-11-08T14:39:56.191Z,33.97
2017-11-08T14:42:38.858Z,32.05
2017-11-08T14:45:07.719Z,31.50
2017-11-08T14:47:36.166Z,32.85
2017-11-08T14:50:04.251Z,30.92
2017-11-08T14:52:32.698Z,30.65
2017-11-08T14:55:01.514Z,30.70
2017-11-08T14:57:32.422Z,29.02
2017-11-08T15:00:01.268Z,31.23
2017-11-08T15:02:29.323Z,32.13
2017-11-08T15:04:58.219Z,32.20
2017-11-08T15:07:27.382Z,34.47
2017-11-08T15:09:55.838Z,31.08
2017-11-08T15:12:30.402Z,33.28
2017-11-08T15:14:58.469Z,33.85
2017-11-08T15:17:27.293Z,34.28
2017-11-08T15:19:59.330Z,34.40
2017-11-08T15:22:28.146Z,33.85
2017-11-08T15:24:56.226Z,37.25
2017-11-08T15:27:24.286Z,33.50
2017-11-08T15:29:53.430Z,34.15
2017-11-08T15:32:22.274Z,33.40
2017-11-08T15:34:50.335Z,35.72
2017-11-08T15:37:18.386Z,34.50
2017-11-08T15:39:47.263Z,35.58
2017-11-08T15:42:15.345Z,33.47
2017-11-08T15:44:43.407Z,34.97
2017-11-08T15:47:11.458Z,33.25
2017-11-08T15:49:39.946Z,38.70
2017-11-08T15:52:09.414Z,39.72
2017-11-08T15:54:37.382Z,36.95
2017-11-08T15:57:05.449Z,37.83
2017-11-08T15:59:33.512Z,37.97
2017-11-08T16:02:01.588Z,35.50
2017-11-08T16:04:30.043Z,34.70
2017-11-08T16:06:58.122Z,34.50
2017-11-08T16:09:26.943Z,34.92
2017-11-08T16:11:56.963Z,38.47
2017-11-08T16:14:25.019Z,36.00
2017-11-08T16:16:53.081Z,34.75
2017-11-08T16:19:21.159Z,34.40
2017-11-08T16:21:49.216Z,35.05
2017-11-08T16:24:17.291Z,36.95
2017-11-08T16:26:45.379Z,36.75
2017-11-08T16:29:16.378Z,35.42
2017-11-08T16:31:46.286Z,36.55
2017-11-08T16:34:15.114Z,36.53
2017-11-08T16:36:43.175Z,36.50
2017-11-08T16:39:11.250Z,38.28
2017-11-08T16:41:39.307Z,34.88
2017-11-08T16:44:07.366Z,32.90
2017-11-08T16:46:36.207Z,34.30
2017-11-08T16:49:04.262Z,33.70
2017-11-08T16:51:32.326Z,31.75
2017-11-08T16:54:00.399Z,33.05
2017-11-08T16:56:28.863Z,35.10
2017-11-08T16:58:56.946Z,32.08
2017-11-08T17:01:25.008Z,33.30
2017-11-08T17:03:53.066Z,33.47
2017-11-08T17:06:21.911Z,33.58
2017-11-08T17:08:49.970Z,33.75
2017-11-08T17:11:18.025Z,33.08
2017-11-08T17:13:46.094Z,35.88
2017-11-08T17:16:14.150Z,33.35
2017-11-08T17:18:42.222Z,34.35
2017-11-08T17:21:10.298Z,32.53
2017-11-08T17:23:38.374Z,32.20
2017-11-08T17:26:06.439Z,35.10
2017-11-08T17:28:34.558Z,33.92
2017-11-08T17:31:03.345Z,28.98
2017-11-08T17:33:31.398Z,33.83
2017-11-08T17:35:59.475Z,32.70
2017-11-08T17:38:28.298Z,35.28
2017-11-08T17:40:56.354Z,31.50
2017-11-08T17:43:24.422Z,31.37
2017-11-08T17:45:52.498Z,29.00
2017-11-08T17:48:20.554Z,31.00
2017-11-08T17:50:48.606Z,30.08
2017-11-08T17:53:16.666Z,31.95
2017-11-08T17:55:44.723Z,32.47
2017-11-08T17:58:13.565Z,29.87
2017-11-08T18:00:41.618Z,31.85
2017-11-08T18:03:09.678Z,29.77
2017-11-08T18:05:37.746Z,30.42
2017-11-08T18:08:05.815Z,31.05
2017-11-08T18:10:33.870Z,31.45
2017-11-08T18:13:01.994Z,32.75
2017-11-08T18:15:30.082Z,32.80
2017-11-08T18:17:58.138Z,29.67
2017-11-08T18:20:26.215Z,30.70
2017-11-08T18:22:54.658Z,31.67
2017-11-08T18:25:22.710Z,30.20
2017-11-08T18:27:51.538Z,30.02
2017-11-08T18:30:19.598Z,30.35
2017-11-08T18:32:47.668Z,29.85
2017-11-08T18:35:16.118Z,28.77
2017-11-08T18:37:44.956Z,29.67
2017-11-08T18:40:13.014Z,30.02
2017-11-08T18:42:41.074Z,31.17
2017-11-08T18:45:09.136Z,29.67
2017-11-08T18:47:37.219Z,27.37
2017-11-08T18:50:06.046Z,28.98
2017-11-08T18:52:35.453Z,30.05
2017-11-08T18:55:03.444Z,28.23
2017-11-08T18:57:31.503Z,28.73
2017-11-08T18:59:59.958Z,29.25
2017-11-08T19:02:28.038Z,31.37
2017-11-08T19:04:56.094Z,29.08
2017-11-08T19:07:24.155Z,26.60
2017-11-08T19:09:52.219Z,28.90
2017-11-08T19:12:20.279Z,30.00
2017-11-08T19:14:49.142Z,28.90
2017-11-08T19:17:17.207Z,27.17
2017-11-08T19:19:45.274Z,27.37
2017-11-08T19:22:13.362Z,27.37
2017-11-08T19:24:41.422Z,30.42
2017-11-08T19:27:09.499Z,31.77
2017-11-08T19:29:37.571Z,31.12
2017-11-08T19:32:05.655Z,31.40
2017-11-08T19:34:34.478Z,31.83
2017-11-08T19:37:02.535Z,32.45
2017-11-08T19:39:30.608Z,32.97
2017-11-08T19:41:58.682Z,33.40
2017-11-08T19:44:26.767Z,41.58
2017-11-08T19:46:54.823Z,38.25
2017-11-08T19:49:24.387Z,37.50
2017-11-08T19:51:53.809Z,35.58
2017-11-08T19:54:22.541Z,34.38
2017-11-08T19:56:50.626Z,33.90
2017-11-08T19:59:18.682Z,32.92
2017-11-08T20:01:46.745Z,37.88
2017-11-08T20:04:14.810Z,39.97
2017-11-08T20:06:42.895Z,41.47
2017-11-08T20:09:12.306Z,37.00
2017-11-08T20:11:40.269Z,36.90
2017-11-08T20:14:08.342Z,31.98
2017-11-08T20:16:36.399Z,33.47
2017-11-08T20:19:05.239Z,34.22
2017-11-08T20:21:33.725Z,34.30
2017-11-08T20:24:01.783Z,35.10
2017-11-08T20:26:29.845Z,36.78
2017-11-08T20:28:59.417Z,34.22
2017-11-08T20:31:28.247Z,33.05
2017-11-08T20:33:56.322Z,35.08
2017-11-08T20:36:25.160Z,34.83
2017-11-08T20:38:53.978Z,39.55
2017-11-08T20:41:22.055Z,35.35
2017-11-08T20:43:50.106Z,34.63
2017-11-08T20:46:18.182Z,36.78
2017-11-08T20:48:46.238Z,33.70
2017-11-08T20:51:15.679Z,36.25
2017-11-08T20:53:43.665Z,34.47
2017-11-08T20:56:14.334Z,35.25
2017-11-08T20:58:42.311Z,36.00
2017-11-08T21:01:11.129Z,34.47
2017-11-08T21:03:39.198Z,36.45
2017-11-08T21:06:08.767Z,34.53
2017-11-08T21:08:38.212Z,33.60
2017-11-08T21:11:06.611Z,34.33
2017-11-08T21:13:35.990Z,36.88
2017-11-08T21:16:03.977Z,35.65
2017-11-08T21:18:32.031Z,32.78
2017-11-08T21:21:00.115Z,32.20
2017-11-08T21:23:28.170Z,33.58
2017-11-08T21:25:56.230Z,35.67
2017-11-08T21:28:24.302Z,33.25
2017-11-08T21:30:52.772Z,32.15
2017-11-08T21:33:22.363Z,31.45
2017-11-08T21:35:50.422Z,31.23
2017-11-08T21:38:18.478Z,31.52
2017-11-08T21:40:47.898Z,31.80
2017-11-08T21:43:15.899Z,31.00
2017-11-08T21:45:44.756Z,28.60
2017-11-08T21:48:12.819Z,30.85
2017-11-08T21:50:40.880Z,29.90
2017-11-08T21:53:09.361Z,30.48
2017-11-08T21:55:38.175Z,30.23
2017-11-08T21:58:06.231Z,31.15
2017-11-08T22:00:34.303Z,34.03
2017-11-08T22:03:03.126Z,31.92
2017-11-08T22:05:31.595Z,32.47
2017-11-08T22:07:59.645Z,30.75
2017-11-08T22:10:27.707Z,32.35
2017-11-08T22:12:55.776Z,29.67
2017-11-08T22:15:23.827Z,29.70
2017-11-08T22:17:51.903Z,29.20
2017-11-08T22:20:20.355Z,31.27
2017-11-08T22:22:48.487Z,29.20
2017-11-08T22:25:16.539Z,30.20
2017-11-08T22:27:44.595Z,29.75
2017-11-08T22:30:13.799Z,30.90
2017-11-08T22:32:41.853Z,31.00
2017-11-08T22:35:10.342Z,29.02
2017-11-08T22:37:39.572Z,30.23
2017-11-08T22:40:07.618Z,30.12
2017-11-08T22:42:35.683Z,30.88
2017-11-08T22:45:03.738Z,28.75
2017-11-08T22:47:32.580Z,30.00
2017-11-08T22:50:01.042Z,30.10
2017-11-08T22:52:29.110Z,29.90
2017-11-08T22:54:57.926Z,28.33
2017-11-08T22:57:26.058Z,29.23
2017-11-08T22:59:54.896Z,28.00
2017-11-08T23:02:22.979Z,29.60
2017-11-08T23:04:51.039Z,27.55
2017-11-08T23:07:19.114Z,28.58
2017-11-08T23:09:47.186Z,27.05
2017-11-08T23:12:15.250Z,30.27
2017-11-08T23:14:43.310Z,28.80
2017-11-08T23:17:11.374Z,27.62
2017-11-08T23:19:39.428Z,29.30
2017-11-08T23:22:07.498Z,28.77
2017-11-08T23:24:35.550Z,27.67
2017-11-08T23:27:03.643Z,29.15
2017-11-08T23:29:31.705Z,28.38
2017-11-08T23:31:59.754Z,29.92
2017-11-08T23:34:28.595Z,29.15
2017-11-08T23:36:56.651Z,29.73
2017-11-08T23:39:24.710Z,30.15
2017-11-08T23:41:52.780Z,27.95
2017-11-08T23:44:20.847Z,29.80
2017-11-08T23:46:48.903Z,27.75
2017-11-08T23:49:17.735Z,31.60
2017-11-08T23:51:45.805Z,28.48
2017-11-08T23:54:13.866Z,29.63
2017-11-08T23:56:41.943Z,30.35
2017-11-08T23:59:28.898Z,30.67
